Wilson Algeciras — 9HA2471 — position and weather

sailwx.info

Track history (hours):
 
Tides and Currents Weather Stations Pressure Air Temp Water Temp Dewpoint Dewpoint Depression Visibility Wind Speed Wind Dir Waves Ship Positions

Wilson Algeciras

Last reported at 2015-Apr-26 09:33 UTC. Time now 2015-Apr-26 09:49 UTC.
Position N 51°29' E 001°08'.

Length 88 m; draft 5.2 m.

Type: Cargo ship. MMSI: 248689000.

Date/timePositionNaut miles runAvg speedWind from/ knotsBaromVisibWave heightAir tempDewpointWater temp
2015-Apr-26 09:33N 51°29' E 001°08'7 6.8
2015-Apr-26 08:34N 51°29' E 001°18'7 6.8
2015-Apr-26 07:34N 51°27' E 001°29'8 8.2
2015-Apr-26 06:33N 51°21' E 001°37'10 9.6
2015-Apr-26 05:33N 51°12' E 001°42'9 8.6
2015-Apr-26 04:34N 51°04' E 001°36'1110.9
2015-Apr-26 03:31N 50°55' E 001°25'  
2015-Apr-21 17:07N 43°56' W 006°15'4 7.6
2015-Apr-21 16:33N 43°57' W 006°09'8 7.8
2015-Apr-21 15:31N 43°58' W 005°58'8 7.8
2015-Apr-21 14:33N 43°59' W 005°47'8 7.9
2015-Apr-21 13:33N 43°59' W 005°37'8 7.5
2015-Apr-21 12:29N 43°59' W 005°25'8 8.7
2015-Apr-21 11:33N 43°58' W 005°14'10 9.5
2015-Apr-21 10:29N 43°57' W 005°00'1010.2
2015-Apr-21 09:30N 43°57' W 004°46'11 9.9
2015-Apr-21 08:22N 43°56' W 004°31'  
2015-Apr-16 11:30N 47°12' W 001°37'  
Track history (hours):
 
Tides and Currents Weather Stations Pressure Air Temp Water Temp Dewpoint Dewpoint Depression Visibility Wind Speed Wind Dir Waves Ship Positions

Wilson Algeciras

Last reported at 2015-Apr-26 09:33 UTC. Time now 2015-Apr-26 09:49 UTC.
Position N 51°29' E 001°08'.

Length 88 m; draft 5.2 m.

Type: Cargo ship. MMSI: 248689000.

Date/timePositionNaut miles runAvg speedWind from/ knotsBaromVisibWave heightAir tempDewpointWater temp
2015-Apr-26 09:33N 51°29' E 001°08'7 6.8
2015-Apr-26 08:34N 51°29' E 001°18'7 6.8
2015-Apr-26 07:34N 51°27' E 001°29'8 8.2
2015-Apr-26 06:33N 51°21' E 001°37'10 9.6
2015-Apr-26 05:33N 51°12' E 001°42'9 8.6
2015-Apr-26 04:34N 51°04' E 001°36'1110.9
2015-Apr-26 03:31N 50°55' E 001°25'  
2015-Apr-21 17:07N 43°56' W 006°15'4 7.6
2015-Apr-21 16:33N 43°57' W 006°09'8 7.8
2015-Apr-21 15:31N 43°58' W 005°58'8 7.8
2015-Apr-21 14:33N 43°59' W 005°47'8 7.9
2015-Apr-21 13:33N 43°59' W 005°37'8 7.5
2015-Apr-21 12:29N 43°59' W 005°25'8 8.7
2015-Apr-21 11:33N 43°58' W 005°14'10 9.5
2015-Apr-21 10:29N 43°57' W 005°00'1010.2
2015-Apr-21 09:30N 43°57' W 004°46'11 9.9
2015-Apr-21 08:22N 43°56' W 004°31'  
2015-Apr-16 11:30N 47°12' W 001°37'  

Dump ship's entire track history